createdAt,value
2019-01-25T00:01:30.690Z,19.23
2019-01-25T00:06:37.727Z,19.83
2019-01-25T00:09:08.705Z,19.63
2019-01-25T00:11:37.902Z,20.30
2019-01-25T00:14:08.423Z,19.27
2019-01-25T00:16:39.511Z,18.27
2019-01-25T00:19:09.612Z,19.00
2019-01-25T00:21:39.035Z,19.67
2019-01-25T00:24:10.149Z,20.43
2019-01-25T00:26:43.660Z,19.40
2019-01-25T00:29:12.997Z,20.17
2019-01-25T00:31:43.655Z,19.10
2019-01-25T00:34:13.191Z,19.93
2019-01-25T00:36:42.408Z,18.80
2019-01-25T00:39:11.844Z,19.23
2019-01-25T00:41:42.199Z,18.77
2019-01-25T00:44:12.852Z,18.13
2019-01-25T00:46:43.751Z,21.90
2019-01-25T00:49:14.756Z,18.63
2019-01-25T00:51:43.937Z,18.87
2019-01-25T00:54:13.251Z,19.47
2019-01-25T00:56:42.745Z,19.37
2019-01-25T00:59:14.570Z,18.87
2019-01-25T01:01:43.758Z,20.13
2019-01-25T01:04:12.973Z,20.30
2019-01-25T01:06:42.235Z,19.63
2019-01-25T01:09:11.734Z,20.90
2019-01-25T01:11:40.947Z,20.00
2019-01-25T01:14:10.195Z,19.47
2019-01-25T01:16:39.427Z,19.83
2019-01-25T01:19:10.659Z,18.57
2019-01-25T01:21:39.978Z,20.13
2019-01-25T01:24:09.325Z,17.70
2019-01-25T01:26:38.829Z,19.60
2019-01-25T01:29:08.094Z,19.20
2019-01-25T01:31:37.293Z,18.63
2019-01-25T01:34:06.511Z,19.80
2019-01-25T01:36:35.744Z,19.80
2019-01-25T01:39:07.175Z,18.70
2019-01-25T01:41:36.993Z,18.77
2019-01-25T01:44:06.278Z,18.80
2019-01-25T01:46:37.523Z,19.37
2019-01-25T01:49:09.266Z,18.63
2019-01-25T01:51:38.498Z,18.30
2019-01-25T01:54:07.766Z,19.33
2019-01-25T01:56:37.009Z,20.07
2019-01-25T01:59:06.253Z,19.10
2019-01-25T02:01:37.131Z,20.57
2019-01-25T02:04:06.160Z,17.90
2019-01-25T02:06:35.215Z,20.47
2019-01-25T02:09:05.913Z,21.70
2019-01-25T02:11:35.421Z,21.07
2019-01-25T02:14:04.750Z,20.03
2019-01-25T02:16:33.979Z,21.13
2019-01-25T02:19:03.224Z,22.47
2019-01-25T02:21:32.504Z,24.03
2019-01-25T02:24:01.681Z,26.20
2019-01-25T02:26:30.948Z,28.10
2019-01-25T02:29:00.190Z,27.87
2019-01-25T02:31:29.383Z,29.17
2019-01-25T02:33:58.596Z,28.87
2019-01-25T02:36:27.822Z,28.73
2019-01-25T02:38:57.002Z,30.57
2019-01-25T02:41:26.212Z,29.53
2019-01-25T02:43:55.434Z,30.60
2019-01-25T02:46:24.616Z,29.77
2019-01-25T02:48:53.805Z,31.83
2019-01-25T02:51:23.061Z,31.47
2019-01-25T02:53:52.286Z,30.20
2019-01-25T02:56:21.485Z,29.53
2019-01-25T02:58:50.731Z,27.93
2019-01-25T03:01:19.946Z,28.00
2019-01-25T03:03:49.199Z,30.73
2019-01-25T03:06:18.667Z,31.03
2019-01-25T03:08:47.880Z,33.07
2019-01-25T03:11:17.357Z,29.83
2019-01-25T03:13:46.768Z,30.57
2019-01-25T03:16:15.944Z,30.97
2019-01-25T03:18:45.118Z,32.37
2019-01-25T03:21:14.378Z,39.70
2019-01-25T03:23:43.577Z,39.07
2019-01-25T03:26:12.811Z,40.70
2019-01-25T03:28:42.188Z,39.90
2019-01-25T03:31:11.399Z,41.17
2019-01-25T03:33:40.588Z,40.80
2019-01-25T03:36:10.818Z,41.73
2019-01-25T03:38:40.019Z,45.30
2019-01-25T03:41:09.209Z,45.60
2019-01-25T03:43:38.461Z,45.10
2019-01-25T03:46:07.671Z,45.33
2019-01-25T03:48:36.865Z,45.73
2019-01-25T03:51:06.088Z,46.40
2019-01-25T03:53:35.305Z,49.00
2019-01-25T03:56:04.600Z,47.17
2019-01-25T03:58:33.902Z,48.30
2019-01-25T04:01:03.106Z,51.50
2019-01-25T04:03:32.337Z,49.77
2019-01-25T04:06:01.576Z,46.53
2019-01-25T04:08:30.781Z,44.73
2019-01-25T04:11:03.774Z,44.30
2019-01-25T04:13:30.964Z,45.23
2019-01-25T04:16:00.410Z,41.87
2019-01-25T04:18:29.617Z,39.20
2019-01-25T04:20:58.868Z,37.37
2019-01-25T04:23:28.049Z,38.33
2019-01-25T04:25:57.320Z,38.63
2019-01-25T04:28:26.598Z,37.80
2019-01-25T04:30:55.931Z,36.03
2019-01-25T04:33:25.134Z,35.37
2019-01-25T04:35:54.387Z,33.63
2019-01-25T04:38:23.993Z,30.93
2019-01-25T04:40:54.645Z,30.77
2019-01-25T04:43:23.892Z,29.27
2019-01-25T04:45:53.124Z,28.70
2019-01-25T04:48:22.349Z,27.07
2019-01-25T04:50:51.561Z,26.90
2019-01-25T04:53:20.749Z,26.30
2019-01-25T04:55:49.974Z,26.17
2019-01-25T04:58:19.873Z,25.37
2019-01-25T05:00:49.547Z,24.07
2019-01-25T05:03:18.907Z,24.63
2019-01-25T05:05:48.328Z,24.73
2019-01-25T05:08:21.380Z,23.50
2019-01-25T05:10:50.600Z,22.30
2019-01-25T05:13:19.936Z,22.77
2019-01-25T05:15:49.371Z,22.17
2019-01-25T05:18:18.741Z,21.30
2019-01-25T05:20:47.992Z,21.57
2019-01-25T05:23:17.249Z,21.07
2019-01-25T05:25:46.415Z,20.03
2019-01-25T05:28:17.649Z,19.80
2019-01-25T05:31:04.886Z,21.07
2019-01-25T05:33:34.210Z,20.70
2019-01-25T05:36:03.429Z,20.90
2019-01-25T05:38:32.681Z,21.57
2019-01-25T05:41:01.917Z,21.43
2019-01-25T05:43:42.085Z,20.50
2019-01-25T05:46:11.918Z,20.17
2019-01-25T05:48:41.131Z,20.53
2019-01-25T05:51:10.332Z,20.43
2019-01-25T05:53:40.040Z,21.37
2019-01-25T05:56:09.298Z,19.73
2019-01-25T05:58:38.523Z,20.33
2019-01-25T06:01:07.764Z,19.67
2019-01-25T06:03:37.026Z,21.57
2019-01-25T06:06:07.523Z,20.10
2019-01-25T06:08:43.750Z,21.17
2019-01-25T06:11:14.782Z,20.80
2019-01-25T06:13:45.925Z,20.43
2019-01-25T06:16:16.264Z,21.90
2019-01-25T06:18:45.602Z,21.53
2019-01-25T06:21:15.357Z,22.30
2019-01-25T06:23:44.609Z,20.37
2019-01-25T06:26:14.201Z,22.60
2019-01-25T06:28:43.448Z,21.33
2019-01-25T06:31:14.304Z,23.80
2019-01-25T06:33:43.508Z,21.23
2019-01-25T06:36:12.987Z,23.43
2019-01-25T06:38:42.189Z,21.37
2019-01-25T06:41:11.398Z,22.33
2019-01-25T06:43:40.991Z,21.67
2019-01-25T06:46:10.198Z,22.83
2019-01-25T06:48:39.444Z,23.07
2019-01-25T06:51:08.714Z,23.27
2019-01-25T06:53:37.926Z,24.77
2019-01-25T06:56:09.717Z,24.80
2019-01-25T06:58:51.202Z,26.37
2019-01-25T07:01:51.910Z,25.23
2019-01-25T07:04:21.147Z,24.97
2019-01-25T07:06:50.364Z,24.70
2019-01-25T07:09:19.674Z,24.30
2019-01-25T07:11:51.678Z,25.70
2019-01-25T07:14:19.896Z,23.63
2019-01-25T07:16:49.118Z,22.33
2019-01-25T07:19:18.539Z,23.10
2019-01-25T07:21:47.763Z,22.13
2019-01-25T07:24:16.956Z,23.80
2019-01-25T07:26:46.218Z,23.40
2019-01-25T07:29:15.435Z,24.27
2019-01-25T07:31:46.276Z,23.33
2019-01-25T07:34:15.647Z,23.27
2019-01-25T07:36:44.848Z,22.90
2019-01-25T07:39:24.109Z,20.87
2019-01-25T07:41:59.216Z,23.20
2019-01-25T07:44:24.302Z,23.57
2019-01-25T07:46:53.542Z,23.60
2019-01-25T07:49:22.736Z,22.93
2019-01-25T07:51:51.952Z,20.83
2019-01-25T07:54:21.361Z,21.17
2019-01-25T07:56:50.525Z,22.83
2019-01-25T07:59:19.892Z,21.53
2019-01-25T08:01:49.166Z,20.73
2019-01-25T08:04:18.671Z,21.37
2019-01-25T08:06:47.902Z,22.00
2019-01-25T08:09:17.098Z,22.67
2019-01-25T08:11:46.328Z,22.10
2019-01-25T08:14:15.520Z,22.00
2019-01-25T08:16:45.057Z,22.40
2019-01-25T08:19:14.378Z,20.03
2019-01-25T08:21:44.238Z,22.83
2019-01-25T08:24:13.481Z,22.70
2019-01-25T08:26:42.743Z,20.40
2019-01-25T08:29:11.951Z,20.97
2019-01-25T08:31:41.282Z,20.37
2019-01-25T08:34:10.545Z,19.13
2019-01-25T08:36:41.410Z,20.87
2019-01-25T08:39:11.318Z,19.30
2019-01-25T08:41:40.638Z,19.80
2019-01-25T08:44:09.867Z,19.97
2019-01-25T08:46:39.098Z,20.87
2019-01-25T08:49:09.354Z,19.13
2019-01-25T08:51:38.789Z,19.07
2019-01-25T08:54:08.056Z,20.10
2019-01-25T08:56:37.324Z,19.70
2019-01-25T08:59:06.553Z,19.07
2019-01-25T09:01:35.919Z,19.87
2019-01-25T09:04:05.116Z,18.93
2019-01-25T09:06:34.340Z,17.57
2019-01-25T09:09:05.830Z,19.13
2019-01-25T09:11:35.065Z,19.07
2019-01-25T09:14:04.349Z,18.70
2019-01-25T09:16:33.597Z,17.97
2019-01-25T09:19:02.858Z,18.60
2019-01-25T09:21:32.067Z,20.00
2019-01-25T09:24:01.409Z,17.90
2019-01-25T09:26:30.621Z,18.37
2019-01-25T09:28:59.830Z,19.87
2019-01-25T09:31:29.085Z,17.50
2019-01-25T09:33:58.289Z,19.53
2019-01-25T09:36:27.529Z,19.77
2019-01-25T09:38:56.749Z,18.60
2019-01-25T09:41:26.026Z,19.57
2019-01-25T09:43:55.354Z,18.60
2019-01-25T09:46:24.597Z,18.50
2019-01-25T09:48:54.147Z,20.17
2019-01-25T09:51:23.374Z,18.53
2019-01-25T09:53:52.609Z,19.10
2019-01-25T09:56:21.846Z,17.70
2019-01-25T09:58:53.973Z,18.07
2019-01-25T10:01:23.984Z,18.30
2019-01-25T10:03:53.210Z,17.87
2019-01-25T10:06:22.413Z,18.00
2019-01-25T10:08:51.694Z,17.80
2019-01-25T10:11:21.219Z,17.83
2019-01-25T10:13:50.429Z,19.63
2019-01-25T10:16:19.699Z,15.47
2019-01-25T10:18:48.902Z,17.90
2019-01-25T10:21:18.097Z,18.30
2019-01-25T10:23:47.326Z,18.43
2019-01-25T10:26:16.648Z,15.70
2019-01-25T10:28:45.863Z,15.10
2019-01-25T10:31:15.102Z,12.63
2019-01-25T10:33:44.407Z,11.73
2019-01-25T10:36:13.687Z,11.23
2019-01-25T10:38:42.924Z,9.60
2019-01-25T10:41:12.159Z,9.57
2019-01-25T10:43:41.369Z,9.00
2019-01-25T10:46:10.726Z,9.20
2019-01-25T10:48:40.221Z,9.40
2019-01-25T10:51:09.416Z,8.60
2019-01-25T10:53:38.676Z,9.27
2019-01-25T10:56:07.903Z,8.33
2019-01-25T10:58:37.490Z,9.57
2019-01-25T11:01:06.929Z,8.57
2019-01-25T11:03:36.130Z,8.47
2019-01-25T11:06:06.063Z,9.03
2019-01-25T11:08:36.283Z,8.53
2019-01-25T11:11:05.502Z,8.70
2019-01-25T11:13:34.719Z,8.63
2019-01-25T11:16:04.065Z,8.20
2019-01-25T11:18:33.278Z,9.43
2019-01-25T11:21:02.511Z,9.33
2019-01-25T11:23:31.746Z,8.60
2019-01-25T11:26:00.973Z,8.30
2019-01-25T11:28:30.426Z,8.63
2019-01-25T11:30:59.764Z,8.43
2019-01-25T11:33:28.963Z,9.07
2019-01-25T11:35:58.173Z,9.93
2019-01-25T11:38:27.395Z,9.03
2019-01-25T11:40:56.726Z,9.37
2019-01-25T11:43:25.914Z,8.83
2019-01-25T11:45:55.203Z,9.23
2019-01-25T11:48:24.626Z,8.63
2019-01-25T11:50:53.830Z,8.63
2019-01-25T11:53:23.130Z,9.53
2019-01-25T11:55:52.363Z,9.30
2019-01-25T11:58:21.583Z,9.33
2019-01-25T12:00:51.534Z,9.03
2019-01-25T12:03:20.736Z,9.30
2019-01-25T12:05:49.952Z,9.23
2019-01-25T12:08:19.279Z,8.70
2019-01-25T12:10:48.524Z,9.27
2019-01-25T12:13:17.756Z,10.57
2019-01-25T12:15:47.027Z,9.50
2019-01-25T12:18:16.248Z,9.50
2019-01-25T12:20:45.545Z,10.30
2019-01-25T12:23:14.825Z,10.47
2019-01-25T12:25:44.065Z,10.53
2019-01-25T12:28:13.275Z,11.20
2019-01-25T12:30:42.826Z,11.00
2019-01-25T12:33:12.059Z,11.33
2019-01-25T12:35:43.253Z,11.10
2019-01-25T12:38:12.679Z,10.27
2019-01-25T12:40:42.714Z,10.90
2019-01-25T12:43:12.265Z,10.63
2019-01-25T12:45:41.540Z,10.37
2019-01-25T12:48:10.739Z,9.90
2019-01-25T12:50:49.058Z,9.67
2019-01-25T12:53:17.404Z,10.00
2019-01-25T12:55:46.721Z,9.60
2019-01-25T12:58:16.008Z,9.33
2019-01-25T13:00:45.402Z,8.90
2019-01-25T13:03:14.644Z,9.10
2019-01-25T13:05:43.958Z,9.30
2019-01-25T13:08:13.276Z,11.13
2019-01-25T13:10:42.569Z,8.63
2019-01-25T13:13:11.823Z,9.30
2019-01-25T13:15:41.028Z,9.57
2019-01-25T13:18:10.222Z,8.93
2019-01-25T13:20:39.851Z,9.27
2019-01-25T13:23:09.289Z,9.73
2019-01-25T13:25:38.517Z,9.40
2019-01-25T13:28:07.763Z,10.83
2019-01-25T13:30:36.984Z,10.97
2019-01-25T13:33:06.590Z,10.80
2019-01-25T13:35:35.836Z,11.20
2019-01-25T13:38:05.877Z,10.60
2019-01-25T13:40:35.180Z,11.10
2019-01-25T13:43:04.557Z,10.60
2019-01-25T13:45:33.758Z,11.43
2019-01-25T13:48:02.977Z,11.27
2019-01-25T13:50:32.332Z,11.20
2019-01-25T13:53:01.614Z,11.93
2019-01-25T13:55:30.846Z,11.23
2019-01-25T13:58:00.110Z,12.07
2019-01-25T14:00:31.365Z,12.10
2019-01-25T14:03:00.682Z,12.13
2019-01-25T14:05:29.950Z,11.53
2019-01-25T14:07:59.497Z,12.67
2019-01-25T14:10:30.826Z,11.90
2019-01-25T14:13:00.119Z,12.33
2019-01-25T14:15:29.435Z,11.87
2019-01-25T14:17:58.663Z,12.67
2019-01-25T14:20:29.594Z,11.63
2019-01-25T14:22:58.803Z,11.57
2019-01-25T14:25:28.044Z,14.13
2019-01-25T14:27:57.313Z,12.67
2019-01-25T14:30:32.590Z,12.53
2019-01-25T14:33:02.042Z,11.70
2019-01-25T14:35:31.682Z,12.40
2019-01-25T14:38:00.889Z,12.53
2019-01-25T14:40:30.139Z,11.90
2019-01-25T14:42:59.375Z,12.17
2019-01-25T14:45:28.924Z,12.03
2019-01-25T14:47:58.249Z,12.27
2019-01-25T14:50:28.533Z,12.90
2019-01-25T14:52:58.191Z,11.80
2019-01-25T14:55:27.670Z,11.43
2019-01-25T14:57:57.306Z,11.87
2019-01-25T15:00:26.516Z,12.87
2019-01-25T15:02:55.791Z,12.23
2019-01-25T15:05:25.123Z,12.13
2019-01-25T15:07:54.345Z,11.33
2019-01-25T15:10:25.109Z,12.33
2019-01-25T15:12:57.035Z,13.30
2019-01-25T15:15:26.542Z,12.20
2019-01-25T15:17:55.916Z,13.57
2019-01-25T15:20:29.015Z,12.27
2019-01-25T15:22:58.275Z,13.43
2019-01-25T15:25:27.532Z,14.47
2019-01-25T15:27:56.762Z,13.20
2019-01-25T15:30:28.378Z,13.60
2019-01-25T15:32:57.711Z,14.40
2019-01-25T15:35:27.321Z,14.30
2019-01-25T15:37:56.635Z,15.57
2019-01-25T15:40:26.079Z,14.50
2019-01-25T15:42:55.285Z,14.30
2019-01-25T15:45:24.627Z,14.77
2019-01-25T15:47:53.891Z,13.90
2019-01-25T15:50:31.394Z,15.43
2019-01-25T15:53:00.641Z,13.97
2019-01-25T15:55:29.881Z,15.43
2019-01-25T15:57:59.316Z,14.83
2019-01-25T16:00:30.105Z,16.03
2019-01-25T16:02:59.253Z,15.80
2019-01-25T16:05:28.583Z,15.87
2019-01-25T16:07:57.838Z,16.40
2019-01-25T16:10:27.082Z,15.57
2019-01-25T16:12:56.357Z,17.53
2019-01-25T16:15:34.720Z,16.50
2019-01-25T16:18:03.941Z,16.07
2019-01-25T16:20:33.147Z,15.63
2019-01-25T16:23:02.429Z,16.93
2019-01-25T16:25:34.154Z,15.17
2019-01-25T16:28:03.349Z,16.07
2019-01-25T16:30:34.842Z,16.40
2019-01-25T16:33:04.590Z,15.30
2019-01-25T16:35:33.813Z,15.63
2019-01-25T16:38:03.157Z,16.53
2019-01-25T16:40:32.593Z,16.67
2019-01-25T16:43:01.783Z,17.20
2019-01-25T16:45:36.652Z,16.77
2019-01-25T16:48:06.572Z,16.83
2019-01-25T16:50:36.281Z,16.40
2019-01-25T16:53:07.163Z,17.60
2019-01-25T16:55:36.370Z,15.17
2019-01-25T16:58:07.285Z,16.57
2019-01-25T17:00:45.019Z,16.33
2019-01-25T17:03:14.877Z,15.63
2019-01-25T17:05:44.087Z,16.10
2019-01-25T17:08:13.512Z,15.77
2019-01-25T17:10:42.728Z,15.97
2019-01-25T17:13:11.974Z,15.53
2019-01-25T17:15:41.173Z,15.00
2019-01-25T17:18:10.976Z,15.53
2019-01-25T17:20:40.458Z,16.13
2019-01-25T17:23:09.809Z,14.87
2019-01-25T17:25:39.056Z,14.93
2019-01-25T17:28:10.278Z,15.03
2019-01-25T17:30:40.498Z,14.77
2019-01-25T17:33:09.713Z,14.43
2019-01-25T17:35:38.943Z,13.80
2019-01-25T17:38:09.341Z,15.20
2019-01-25T17:40:46.345Z,14.30
2019-01-25T17:43:12.200Z,15.00
2019-01-25T17:45:41.484Z,13.23
2019-01-25T17:48:10.695Z,13.97
2019-01-25T17:50:39.925Z,13.80
2019-01-25T17:53:09.286Z,13.93
2019-01-25T17:55:38.493Z,14.57
2019-01-25T17:58:08.461Z,14.00
2019-01-25T18:00:45.454Z,14.23
2019-01-25T18:03:14.829Z,15.70
2019-01-25T18:05:44.653Z,13.33
2019-01-25T18:08:13.915Z,13.87
2019-01-25T18:10:43.166Z,13.17
2019-01-25T18:13:12.404Z,14.03
2019-01-25T18:15:41.632Z,13.87
2019-01-25T18:18:10.997Z,14.00
2019-01-25T18:20:40.193Z,13.60
2019-01-25T18:23:10.596Z,13.30
2019-01-25T18:25:43.055Z,10.50
2019-01-25T18:28:15.962Z,11.70
2019-01-25T18:30:49.249Z,8.97
2019-01-25T18:33:18.539Z,8.40
2019-01-25T18:35:47.883Z,8.73
2019-01-25T18:38:17.551Z,7.83
2019-01-25T18:40:46.791Z,7.30
2019-01-25T18:43:17.555Z,7.33
2019-01-25T18:45:49.084Z,5.53
2019-01-25T18:48:18.285Z,5.90
2019-01-25T18:50:47.542Z,6.80
2019-01-25T18:53:16.755Z,6.17
2019-01-25T18:55:46.043Z,5.20
2019-01-25T18:58:15.413Z,5.23
2019-01-25T19:00:44.622Z,5.13
2019-01-25T19:03:13.847Z,5.10
2019-01-25T19:05:45.259Z,5.43
2019-01-25T19:08:14.491Z,5.30
2019-01-25T19:10:43.729Z,4.80
2019-01-25T19:13:13.093Z,5.57
2019-01-25T19:15:42.357Z,4.57
2019-01-25T19:18:11.514Z,5.30
2019-01-25T19:20:40.771Z,5.87
2019-01-25T19:23:09.996Z,6.07
2019-01-25T19:25:39.231Z,5.77
2019-01-25T19:28:11.382Z,5.73
2019-01-25T19:30:44.310Z,5.40
2019-01-25T19:33:13.800Z,5.13
2019-01-25T19:35:43.466Z,5.60
2019-01-25T19:38:14.756Z,6.57
2019-01-25T19:40:45.192Z,6.90
2019-01-25T19:43:14.504Z,6.63
2019-01-25T19:45:45.322Z,6.07
2019-01-25T19:48:16.916Z,5.50
2019-01-25T19:50:46.179Z,4.83
2019-01-25T19:53:15.477Z,4.67
2019-01-25T19:55:44.786Z,4.70
2019-01-25T19:58:16.690Z,4.77
2019-01-25T20:00:46.369Z,5.43
2019-01-25T20:03:16.000Z,5.70
2019-01-25T20:05:45.746Z,5.70
2019-01-25T20:08:15.095Z,5.40
2019-01-25T20:10:44.341Z,4.70
2019-01-25T20:13:14.385Z,5.20
2019-01-25T20:15:43.586Z,5.40
2019-01-25T20:18:12.821Z,8.40
2019-01-25T20:20:42.343Z,5.17
2019-01-25T20:23:11.982Z,3.90
2019-01-25T20:25:41.278Z,4.07
2019-01-25T20:28:11.989Z,4.33
2019-01-25T20:30:49.569Z,4.70
2019-01-25T20:33:15.057Z,4.43
2019-01-25T20:35:44.287Z,4.07
2019-01-25T20:38:13.790Z,4.37
2019-01-25T20:40:43.051Z,4.93
2019-01-25T20:43:13.155Z,5.67
2019-01-25T20:45:42.637Z,6.13
2019-01-25T20:48:11.922Z,4.87
2019-01-25T20:50:43.172Z,5.80
2019-01-25T20:53:12.917Z,5.73
2019-01-25T20:55:42.210Z,6.03
2019-01-25T20:58:11.493Z,6.93
2019-01-25T21:00:41.266Z,7.30
2019-01-25T21:03:13.197Z,6.37
2019-01-25T21:05:42.500Z,7.53
2019-01-25T21:08:12.004Z,8.37
2019-01-25T21:10:41.382Z,8.53
2019-01-25T21:13:10.712Z,9.03
2019-01-25T21:15:40.646Z,9.10
2019-01-25T21:18:10.097Z,8.83
2019-01-25T21:20:41.841Z,8.70
2019-01-25T21:23:11.231Z,9.17
2019-01-25T21:25:40.929Z,8.23
2019-01-25T21:28:10.428Z,8.47
2019-01-25T21:30:40.904Z,8.70
2019-01-25T21:33:12.341Z,7.23
2019-01-25T21:35:41.565Z,7.80
2019-01-25T21:38:13.129Z,7.57
2019-01-25T21:40:42.863Z,7.33
2019-01-25T21:43:12.569Z,7.13
2019-01-25T21:45:43.616Z,7.47
2019-01-25T21:48:15.614Z,6.33
2019-01-25T21:50:45.676Z,8.00
2019-01-25T21:53:17.403Z,7.00
2019-01-25T21:55:49.001Z,7.23
2019-01-25T21:58:18.296Z,7.13
2019-01-25T22:00:47.601Z,6.90
2019-01-25T22:03:16.756Z,7.20
2019-01-25T22:05:46.013Z,7.07
2019-01-25T22:08:15.288Z,6.70
2019-01-25T22:10:50.132Z,7.33
2019-01-25T22:13:21.580Z,7.77
2019-01-25T22:15:51.338Z,7.53
2019-01-25T22:18:21.025Z,8.40
2019-01-25T22:20:50.274Z,8.27
2019-01-25T22:23:19.579Z,8.43
2019-01-25T22:25:48.780Z,8.17
2019-01-25T22:28:18.029Z,7.57
2019-01-25T22:30:47.229Z,7.43
2019-01-25T22:33:16.474Z,7.70
2019-01-25T22:35:45.715Z,7.87
2019-01-25T22:38:15.065Z,8.50
2019-01-25T22:40:44.333Z,7.03
2019-01-25T22:43:13.532Z,7.40
2019-01-25T22:45:42.741Z,7.17
2019-01-25T22:48:13.152Z,7.27
2019-01-25T22:50:42.352Z,6.60
2019-01-25T22:53:11.570Z,6.70
2019-01-25T22:55:40.874Z,6.17
2019-01-25T22:58:10.152Z,7.00
2019-01-25T23:01:09.949Z,6.83
2019-01-25T23:04:09.064Z,6.27
2019-01-25T23:06:44.953Z,6.10
2019-01-25T23:09:21.225Z,6.23
2019-01-25T23:11:50.810Z,5.17
2019-01-25T23:14:20.183Z,5.93
2019-01-25T23:16:49.684Z,5.27
2019-01-25T23:19:20.244Z,6.23
2019-01-25T23:21:50.360Z,6.07
2019-01-25T23:24:19.640Z,5.70
2019-01-25T23:26:48.878Z,5.83
2019-01-25T23:29:18.084Z,6.57
2019-01-25T23:31:49.834Z,6.13
2019-01-25T23:34:19.064Z,6.43
2019-01-25T23:36:48.267Z,5.93
2019-01-25T23:39:17.492Z,5.83
2019-01-25T23:41:49.035Z,6.43
2019-01-25T23:44:20.367Z,7.00
2019-01-25T23:46:49.415Z,5.80
2019-01-25T23:49:18.888Z,5.90
2019-01-25T23:51:49.470Z,6.43
2019-01-25T23:54:20.342Z,5.27
2019-01-25T23:56:49.644Z,5.90
2019-01-25T23:59:18.861Z,5.50
